This is the latest recevied weather packets stored in our database for station/object KQ4EHY-1. If no packets are shown the sender has not sent any weather packets the latest 10 day(s).
| Time | Temp. | Humidity | Pressure | Rain* | Wind** | Luminosity | Snow |
|---|---|---|---|---|---|---|---|
| 1778192829 | 22.22° C | 66% | 1006.8 hPa | 0 mm | 1.34 m/s, 65° | - | - |
| 1778192769 | 22.22° C | 66% | 1006.8 hPa | 0 mm | 1.34 m/s, 65° | - | - |
| 1778192709 | 22.22° C | 64% | 1006.7 hPa | 0 mm | 2.68 m/s, 146° | - | - |
| 1778192649 | 22.22° C | 64% | 1006.7 hPa | 0 mm | 2.68 m/s, 146° | - | - |
| 1778192589 | 22.22° C | 64% | 1006.7 hPa | 0 mm | 2.68 m/s, 146° | - | - |
| 1778192529 | 22.22° C | 64% | 1006.7 hPa | 0 mm | 2.68 m/s, 146° | - | - |
| 1778192469 | 22.22° C | 64% | 1006.7 hPa | 0 mm | 2.68 m/s, 146° | - | - |
| 1778192409 | 22.22° C | 65% | 1006.8 hPa | 0 mm | 1.79 m/s, 275° | - | - |
| 1778192349 | 22.22° C | 65% | 1006.8 hPa | 0 mm | 1.79 m/s, 275° | - | - |
| 1778192289 | 22.22° C | 65% | 1006.8 hPa | 0 mm | 1.79 m/s, 275° | - | - |
| 1778192229 | 22.22° C | 65% | 1006.8 hPa | 0 mm | 1.79 m/s, 275° | - | - |
| 1778192169 | 22.22° C | 65% | 1006.8 hPa | 0 mm | 1.79 m/s, 275° | - | - |
| 1778192109 | 22.22° C | 64% | 1006.3 hPa | 0 mm | 0.89 m/s, 299° | - | - |
| 1778192049 | 22.22° C | 64% | 1006.3 hPa | 0 mm | 0.89 m/s, 299° | - | - |
| 1778191989 | 22.22° C | 64% | 1006.3 hPa | 0 mm | 0.89 m/s, 299° | - | - |
| 1778191929 | 22.22° C | 64% | 1006.3 hPa | 0 mm | 0.89 m/s, 299° | - | - |
| 1778191869 | 22.22° C | 64% | 1006.3 hPa | 0 mm | 0.89 m/s, 299° | - | - |
| 1778191809 | 22.22° C | 65% | 1006.6 hPa | 0 mm | 0.89 m/s, 9° | - | - |
| 1778191749 | 22.22° C | 65% | 1006.6 hPa | 0 mm | 0.89 m/s, 9° | - | - |
| 1778191689 | 22.22° C | 65% | 1006.6 hPa | 0 mm | 0.89 m/s, 9° | - | - |
| 1778191629 | 22.22° C | 65% | 1006.6 hPa | 0 mm | 0.89 m/s, 9° | - | - |
| 1778191569 | 22.22° C | 65% | 1006.6 hPa | 0 mm | 0.89 m/s, 9° | - | - |
| 1778191509 | 22.22° C | 63% | 1006.4 hPa | 0 mm | 1.34 m/s, 354° | - | - |
| 1778191449 | 22.22° C | 63% | 1006.4 hPa | 0 mm | 1.34 m/s, 354° | - | - |
| 1778191389 | 22.22° C | 63% | 1006.4 hPa | 0 mm | 1.34 m/s, 354° | - | - |
* Rain latest hour (hover to see other rain measurements)
** Current wind speed in m/s (hover to see current wind gust speed)